createdAt,value
2023-01-11T00:00:07.418Z,10.40
2023-01-11T00:02:36.104Z,10.40
2023-01-11T00:05:07.584Z,10.40
2023-01-11T00:07:36.173Z,10.40
2023-01-11T00:10:04.925Z,10.30
2023-01-11T00:12:33.425Z,10.30
2023-01-11T00:15:02.012Z,10.40
2023-01-11T00:17:30.515Z,10.50
2023-01-11T00:19:58.976Z,10.60
2023-01-11T00:22:28.793Z,10.60
2023-01-11T00:24:57.167Z,10.60
2023-01-11T00:27:25.676Z,10.60
2023-01-11T00:29:54.141Z,10.60
2023-01-11T00:32:22.568Z,10.60
2023-01-11T00:34:51.034Z,10.50
2023-01-11T00:37:19.454Z,10.60
2023-01-11T00:39:49.196Z,10.60
2023-01-11T00:42:34.670Z,10.60
2023-01-11T00:45:20.207Z,10.70
2023-01-11T00:48:01.233Z,10.70
2023-01-11T00:50:30.721Z,10.70
2023-01-11T00:52:59.723Z,10.80
2023-01-11T00:55:31.926Z,10.80
2023-01-11T00:58:00.513Z,10.90
2023-01-11T01:00:29.434Z,10.90
2023-01-11T01:02:58.211Z,10.80
2023-01-11T01:05:26.677Z,10.80
2023-01-11T01:07:55.053Z,10.80
2023-01-11T01:10:23.483Z,10.70
2023-01-11T01:13:10.618Z,10.70
2023-01-11T01:15:39.112Z,10.70
2023-01-11T01:18:07.527Z,10.80
2023-01-11T01:20:35.984Z,10.70
2023-01-11T01:23:04.456Z,10.60
2023-01-11T01:25:32.835Z,10.60
2023-01-11T01:28:02.697Z,10.50
2023-01-11T01:30:31.385Z,10.50
2023-01-11T01:32:59.827Z,10.60
2023-01-11T01:35:28.195Z,10.60
2023-01-11T01:37:56.550Z,10.50
2023-01-11T01:40:25.025Z,10.40
2023-01-11T01:42:54.495Z,10.50
2023-01-11T01:45:26.271Z,10.60
2023-01-11T01:47:57.112Z,10.60
2023-01-11T01:50:27.045Z,10.50
2023-01-11T01:52:57.898Z,10.40
2023-01-11T01:55:27.916Z,10.40
2023-01-11T01:57:56.683Z,10.30
2023-01-11T02:00:28.681Z,10.40
2023-01-11T02:02:57.911Z,10.50
2023-01-11T02:05:26.794Z,10.50
2023-01-11T02:07:57.526Z,10.40
2023-01-11T02:10:27.996Z,10.40
2023-01-11T02:12:59.476Z,10.50
2023-01-11T02:15:30.163Z,10.50
2023-01-11T02:17:58.562Z,10.50
2023-01-11T02:20:36.444Z,10.60
2023-01-11T02:23:21.424Z,10.60
2023-01-11T02:26:17.229Z,10.50
2023-01-11T02:28:52.491Z,10.50
2023-01-11T02:31:28.598Z,10.40
2023-01-11T02:34:01.163Z,10.40
2023-01-11T02:36:32.412Z,10.30
2023-01-11T02:39:03.723Z,10.40
2023-01-11T02:41:57.252Z,10.30
2023-01-11T02:44:45.305Z,10.20
2023-01-11T02:47:18.690Z,10.30
2023-01-11T02:49:50.863Z,10.40
2023-01-11T02:52:21.393Z,10.30
2023-01-11T02:54:54.542Z,10.40
2023-01-11T02:57:23.760Z,10.40
2023-01-11T02:59:56.127Z,10.30
2023-01-11T03:02:24.610Z,10.30
2023-01-11T03:04:52.978Z,10.40
2023-01-11T03:07:29.701Z,10.40
2023-01-11T03:10:03.575Z,10.50
2023-01-11T03:12:55.877Z,10.40
2023-01-11T03:15:42.496Z,10.20
2023-01-11T03:18:16.124Z,10.20
2023-01-11T03:20:48.551Z,10.30
2023-01-11T03:23:20.173Z,10.40
2023-01-11T03:25:55.825Z,10.60
2023-01-11T03:28:26.978Z,10.70
2023-01-11T03:31:00.894Z,10.50
2023-01-11T03:33:33.817Z,10.60
2023-01-11T03:36:04.419Z,10.50
2023-01-11T03:38:37.373Z,10.50
2023-01-11T03:41:07.458Z,10.50
2023-01-11T03:43:37.585Z,10.40
2023-01-11T03:46:11.072Z,10.20
2023-01-11T03:48:41.180Z,10.10
2023-01-11T03:51:18.876Z,10.00
2023-01-11T03:53:48.794Z,10.00
2023-01-11T03:56:19.785Z,10.10
2023-01-11T03:58:48.232Z,10.20
2023-01-11T04:01:18.202Z,10.20
2023-01-11T04:03:46.644Z,10.10
2023-01-11T04:06:15.389Z,10.30
2023-01-11T04:08:43.832Z,10.40
2023-01-11T04:11:12.221Z,10.40
2023-01-11T04:13:40.629Z,10.50
2023-01-11T04:16:09.057Z,10.50
2023-01-11T04:18:38.847Z,10.60
2023-01-11T04:21:07.176Z,10.60
2023-01-11T04:23:35.868Z,10.50
2023-01-11T04:26:04.223Z,10.60
2023-01-11T04:28:32.555Z,10.60
2023-01-11T04:31:00.895Z,10.50
2023-01-11T04:33:29.320Z,10.50
2023-01-11T04:35:59.041Z,10.50
2023-01-11T04:38:27.411Z,10.50
2023-01-11T04:41:15.998Z,10.60
2023-01-11T04:43:43.426Z,10.60
2023-01-11T04:46:12.017Z,10.70
2023-01-11T04:48:40.969Z,10.70
2023-01-11T04:51:10.743Z,10.80
2023-01-11T04:53:39.202Z,10.80
2023-01-11T04:56:08.311Z,10.80
2023-01-11T04:58:38.213Z,10.70
2023-01-11T05:01:10.834Z,10.70
2023-01-11T05:03:39.346Z,10.80
2023-01-11T05:06:08.090Z,10.70
2023-01-11T05:08:37.977Z,10.70
2023-01-11T05:11:07.366Z,10.70
2023-01-11T05:13:45.344Z,10.60
2023-01-11T05:16:14.836Z,10.60
2023-01-11T05:18:43.788Z,10.40
2023-01-11T05:21:13.674Z,10.50
2023-01-11T05:23:43.573Z,10.40
2023-01-11T05:26:13.296Z,10.20
2023-01-11T05:28:41.781Z,10.30
2023-01-11T05:31:10.181Z,10.30
2023-01-11T05:33:38.537Z,10.30
2023-01-11T05:36:08.032Z,10.30
2023-01-11T05:38:36.416Z,10.30
2023-01-11T05:41:07.087Z,10.30
2023-01-11T05:43:55.618Z,10.20
2023-01-11T05:46:23.175Z,10.20
2023-01-11T05:48:51.787Z,10.20
2023-01-11T05:51:20.161Z,10.20
2023-01-11T05:53:48.563Z,10.10
2023-01-11T05:56:18.430Z,10.20
2023-01-11T05:58:48.366Z,10.20
2023-01-11T06:01:16.742Z,10.20
2023-01-11T06:03:45.555Z,10.20
2023-01-11T06:06:14.356Z,10.20
2023-01-11T06:08:42.817Z,10.20
2023-01-11T06:11:13.427Z,10.20
2023-01-11T06:13:43.566Z,10.20
2023-01-11T06:16:13.283Z,10.10
2023-01-11T06:18:42.433Z,10.10
2023-01-11T06:21:11.716Z,10.10
2023-01-11T06:23:42.184Z,10.10
2023-01-11T06:26:11.631Z,10.20
2023-01-11T06:28:39.983Z,10.10
2023-01-11T06:31:09.904Z,10.20
2023-01-11T06:33:38.510Z,10.20
2023-01-11T06:36:07.843Z,10.10
2023-01-11T06:38:36.454Z,10.00
2023-01-11T06:41:05.740Z,10.00
2023-01-11T06:43:34.069Z,10.00
2023-01-11T06:46:02.579Z,10.00
2023-01-11T06:48:32.574Z,10.00
2023-01-11T06:51:01.086Z,10.00
2023-01-11T06:53:29.671Z,10.00
2023-01-11T06:55:59.008Z,9.90
2023-01-11T06:58:27.605Z,10.00
2023-01-11T07:00:57.246Z,10.00
2023-01-11T07:03:26.308Z,10.00
2023-01-11T07:05:57.389Z,10.10
2023-01-11T07:08:26.111Z,10.10
2023-01-11T07:10:54.856Z,10.10
2023-01-11T07:13:23.309Z,10.20
2023-01-11T07:15:54.216Z,10.20
2023-01-11T07:18:22.744Z,10.30
2023-01-11T07:20:51.734Z,10.40
2023-01-11T07:23:21.622Z,10.40
2023-01-11T07:25:50.353Z,10.50
2023-01-11T07:28:18.745Z,10.50
2023-01-11T07:31:02.669Z,10.50
2023-01-11T07:33:31.054Z,10.60
2023-01-11T07:36:00.844Z,10.50
2023-01-11T07:38:30.681Z,10.40
2023-01-11T07:40:59.003Z,10.40
2023-01-11T07:43:27.026Z,10.40
2023-01-11T07:45:55.532Z,10.20
2023-01-11T07:48:33.364Z,10.00
2023-01-11T07:51:02.052Z,10.00
2023-01-11T07:53:31.955Z,10.00
2023-01-11T07:56:00.364Z,10.10
2023-01-11T07:58:28.747Z,10.00
2023-01-11T08:01:00.056Z,10.00
2023-01-11T08:03:28.510Z,10.10
2023-01-11T08:05:56.889Z,10.30
2023-01-11T08:08:25.401Z,10.30
2023-01-11T08:11:09.064Z,10.40
2023-01-11T08:13:54.924Z,10.50
2023-01-11T08:16:23.413Z,10.50
2023-01-11T08:18:52.020Z,10.70
2023-01-11T08:21:21.417Z,10.70
2023-01-11T08:23:49.858Z,10.70
2023-01-11T08:26:19.669Z,10.70
2023-01-11T08:28:48.157Z,10.80
2023-01-11T08:31:16.917Z,10.80
2023-01-11T08:33:45.305Z,10.90
2023-01-11T08:36:14.178Z,11.00
2023-01-11T08:38:42.800Z,11.20
2023-01-11T08:41:11.757Z,11.30
2023-01-11T08:43:41.976Z,11.40
2023-01-11T08:46:10.871Z,11.60
2023-01-11T08:48:39.378Z,11.60
2023-01-11T08:51:07.900Z,11.60
2023-01-11T08:53:36.273Z,11.60
2023-01-11T08:56:04.780Z,11.70
2023-01-11T08:58:33.255Z,11.80
2023-01-11T09:01:03.981Z,11.90
2023-01-11T09:03:32.497Z,12.00
2023-01-11T09:06:00.933Z,12.00
2023-01-11T09:08:29.869Z,11.90
2023-01-11T09:10:59.985Z,11.90
2023-01-11T09:13:28.608Z,12.00
2023-01-11T09:15:57.663Z,12.00
2023-01-11T09:18:27.546Z,12.00
2023-01-11T09:20:55.902Z,12.00
2023-01-11T09:23:24.354Z,12.10
2023-01-11T09:25:52.782Z,12.10
2023-01-11T09:28:21.191Z,12.10
2023-01-11T09:30:49.526Z,12.10
2023-01-11T09:33:17.998Z,12.00
2023-01-11T09:35:49.227Z,12.00
2023-01-11T09:38:17.512Z,12.10
2023-01-11T09:40:48.926Z,12.00
2023-01-11T09:43:18.272Z,12.10
2023-01-11T09:45:51.001Z,12.00
2023-01-11T09:48:26.763Z,12.00
2023-01-11T09:50:57.738Z,12.00
2023-01-11T09:53:32.079Z,12.10
2023-01-11T09:56:02.497Z,12.10
2023-01-11T09:58:49.075Z,12.20
2023-01-11T10:01:20.158Z,12.20
2023-01-11T10:04:06.243Z,12.20
2023-01-11T10:06:43.237Z,12.10
2023-01-11T10:18:27.916Z,12.20
2023-01-11T10:18:32.231Z,12.20
2023-01-11T10:20:52.653Z,12.20
2023-01-11T10:23:28.129Z,12.20
2023-01-11T10:26:00.288Z,12.20
2023-01-11T10:28:33.212Z,12.20
2023-01-11T10:31:11.816Z,12.20
2023-01-11T10:34:09.290Z,12.30
2023-01-11T10:37:00.898Z,12.30
2023-01-11T10:39:55.621Z,12.30
2023-01-11T10:42:25.384Z,12.30
2023-01-11T10:44:57.820Z,12.20
2023-01-11T10:47:28.532Z,12.20
2023-01-11T10:50:00.330Z,12.20
2023-01-11T10:52:34.056Z,12.30
2023-01-11T10:55:12.933Z,12.20
2023-01-11T10:58:01.264Z,12.30
2023-01-11T11:00:36.588Z,12.40
2023-01-11T11:03:18.590Z,12.40
2023-01-11T11:05:50.354Z,12.50
2023-01-11T11:08:22.663Z,12.50
2023-01-11T11:10:56.903Z,12.40
2023-01-11T11:13:30.207Z,12.40
2023-01-11T11:16:04.018Z,12.40
2023-01-11T11:18:32.454Z,12.40
2023-01-11T11:21:03.959Z,12.50
2023-01-11T11:23:32.715Z,12.60
2023-01-11T11:26:03.819Z,12.60
2023-01-11T11:28:32.891Z,12.40
2023-01-11T11:31:02.250Z,12.50
2023-01-11T11:33:33.781Z,12.50
2023-01-11T11:36:04.918Z,12.50
2023-01-11T11:38:34.081Z,12.50
2023-01-11T11:41:07.640Z,12.50
2023-01-11T11:43:36.819Z,12.50
2023-01-11T11:46:06.453Z,12.60
2023-01-11T11:48:35.531Z,12.60
2023-01-11T11:51:05.474Z,12.60
2023-01-11T11:53:35.827Z,12.60
2023-01-11T11:56:10.035Z,12.60
2023-01-11T11:58:41.566Z,12.60
2023-01-11T12:01:20.336Z,12.50
2023-01-11T12:03:49.711Z,12.50
2023-01-11T12:06:22.299Z,12.40
2023-01-11T12:08:50.889Z,12.50
2023-01-11T12:11:21.999Z,12.60
2023-01-11T12:13:59.765Z,12.60
2023-01-11T12:16:31.597Z,12.70
2023-01-11T12:18:59.984Z,12.60
2023-01-11T12:21:30.098Z,12.60
2023-01-11T12:24:10.396Z,12.60
2023-01-11T12:26:41.861Z,12.60
2023-01-11T12:29:23.574Z,12.70
2023-01-11T12:32:07.104Z,12.60
2023-01-11T12:34:38.651Z,12.60
2023-01-11T12:37:13.445Z,12.60
2023-01-11T12:39:46.406Z,12.60
2023-01-11T12:42:28.542Z,12.50
2023-01-11T12:45:02.956Z,12.40
2023-01-11T12:47:44.837Z,12.40
2023-01-11T12:50:17.783Z,12.40
2023-01-11T12:52:52.030Z,12.40
2023-01-11T12:55:28.973Z,12.40
2023-01-11T12:58:05.660Z,12.40
2023-01-11T13:00:42.860Z,12.50
2023-01-11T13:03:35.449Z,12.40
2023-01-11T13:06:08.264Z,12.40
2023-01-11T13:08:44.760Z,12.40
2023-01-11T13:11:35.087Z,12.40
2023-01-11T13:14:11.575Z,12.40
2023-01-11T13:16:44.008Z,12.50
2023-01-11T13:19:14.710Z,12.40
2023-01-11T13:21:53.271Z,12.30
2023-01-11T13:24:26.455Z,12.30
2023-01-11T13:26:56.272Z,12.30
2023-01-11T13:29:28.570Z,12.20
2023-01-11T13:31:58.984Z,12.20
2023-01-11T13:34:29.005Z,12.30
2023-01-11T13:37:00.525Z,12.20
2023-01-11T13:39:33.542Z,12.20
2023-01-11T13:42:04.500Z,12.10
2023-01-11T13:44:37.356Z,12.10
2023-01-11T13:47:08.718Z,12.10
2023-01-11T13:49:45.428Z,12.20
2023-01-11T13:52:14.635Z,12.20
2023-01-11T13:54:47.140Z,12.20
2023-01-11T13:57:21.156Z,12.30
2023-01-11T13:59:52.651Z,12.20
2023-01-11T14:02:23.959Z,12.10
2023-01-11T14:04:54.663Z,12.20
2023-01-11T14:07:26.871Z,12.30
2023-01-11T14:10:07.847Z,12.30
2023-01-11T14:12:44.036Z,12.30
2023-01-11T14:15:20.040Z,12.30
2023-01-11T14:18:09.376Z,12.40
2023-01-11T14:20:41.624Z,12.40
2023-01-11T14:23:12.464Z,12.40
2023-01-11T14:25:49.863Z,12.40
2023-01-11T14:28:25.864Z,12.30
2023-01-11T14:31:06.199Z,12.40
2023-01-11T14:33:42.841Z,12.40
2023-01-11T14:36:16.031Z,12.40
2023-01-11T14:39:01.657Z,12.40
2023-01-11T14:41:45.442Z,12.30
2023-01-11T14:44:22.205Z,12.30
2023-01-11T14:47:13.772Z,12.30
2023-01-11T14:49:53.540Z,12.30
2023-01-11T14:52:38.454Z,12.20
2023-01-11T14:55:15.613Z,12.20
2023-01-11T14:57:44.824Z,12.20
2023-01-11T15:00:28.219Z,12.20
2023-01-11T15:03:23.335Z,12.10
2023-01-11T15:05:52.938Z,12.10
2023-01-11T15:08:23.741Z,12.10
2023-01-11T15:10:53.346Z,12.10
2023-01-11T15:13:23.281Z,12.10
2023-01-11T15:16:24.468Z,12.10
2023-01-11T15:18:54.545Z,12.10
2023-01-11T15:21:24.753Z,12.10
2023-01-11T15:23:54.875Z,12.00
2023-01-11T15:26:24.599Z,12.00
2023-01-11T15:28:54.034Z,12.00
2023-01-11T15:31:40.085Z,12.00
2023-01-11T15:34:26.116Z,12.00
2023-01-11T15:37:09.380Z,11.90
2023-01-11T15:39:40.650Z,11.80
2023-01-11T15:42:22.425Z,11.60
2023-01-11T15:45:09.968Z,11.50
2023-01-11T15:47:59.174Z,11.50
2023-01-11T15:50:36.803Z,11.60
2023-01-11T15:53:25.832Z,11.60
2023-01-11T15:56:08.217Z,11.60
2023-01-11T15:58:47.643Z,11.60
2023-01-11T16:01:21.974Z,11.50
2023-01-11T16:03:54.684Z,11.40
2023-01-11T16:06:29.088Z,11.40
2023-01-11T16:08:59.869Z,11.40
2023-01-11T16:11:33.120Z,11.50
2023-01-11T16:14:06.827Z,11.40
2023-01-11T16:16:39.299Z,11.50
2023-01-11T16:19:09.973Z,11.50
2023-01-11T16:21:40.572Z,11.50
2023-01-11T16:24:09.787Z,11.50
2023-01-11T16:26:39.643Z,11.60
2023-01-11T16:29:11.950Z,11.50
2023-01-11T16:31:53.682Z,11.40
2023-01-11T16:34:22.302Z,11.40
2023-01-11T16:36:52.088Z,11.30
2023-01-11T16:39:22.084Z,11.30
2023-01-11T16:41:53.642Z,11.20
2023-01-11T16:44:25.872Z,11.20
2023-01-11T16:47:07.497Z,11.20
2023-01-11T16:49:36.042Z,11.20
2023-01-11T16:52:34.786Z,11.20
2023-01-11T16:55:04.129Z,11.20
2023-01-11T16:57:35.958Z,11.10
2023-01-11T17:00:06.221Z,11.10
2023-01-11T17:02:38.104Z,11.10
2023-01-11T17:05:18.468Z,11.20
2023-01-11T17:07:48.541Z,11.20
2023-01-11T17:10:20.715Z,11.20
2023-01-11T17:12:53.015Z,11.20
2023-01-11T17:15:24.258Z,11.10
2023-01-11T17:17:52.728Z,11.10
2023-01-11T17:20:22.213Z,11.00
2023-01-11T17:22:53.928Z,11.00
2023-01-11T17:25:24.894Z,11.10
2023-01-11T17:27:58.749Z,11.10
2023-01-11T17:30:27.793Z,11.20
2023-01-11T17:32:57.603Z,11.10
2023-01-11T17:35:26.746Z,11.10
2023-01-11T17:37:57.719Z,11.10
2023-01-11T17:40:27.472Z,11.10
2023-01-11T17:43:15.554Z,11.10
2023-01-11T17:45:46.844Z,11.10
2023-01-11T17:48:15.902Z,11.10
2023-01-11T17:50:47.728Z,11.20
2023-01-11T17:53:18.641Z,11.20
2023-01-11T17:55:51.156Z,11.10
2023-01-11T17:58:20.367Z,11.10
2023-01-11T18:01:03.631Z,11.10
2023-01-11T18:03:32.475Z,11.00
2023-01-11T18:06:11.725Z,11.00
2023-01-11T18:08:46.699Z,10.90
2023-01-11T18:11:22.298Z,10.80
2023-01-11T18:13:52.042Z,10.80
2023-01-11T18:16:20.894Z,10.80
2023-01-11T18:18:50.293Z,10.80
2023-01-11T18:21:33.613Z,10.80
2023-01-11T18:24:21.487Z,10.80
2023-01-11T18:27:05.704Z,10.90
2023-01-11T18:29:47.764Z,10.80
2023-01-11T18:32:16.255Z,10.70
2023-01-11T18:34:46.797Z,10.70
2023-01-11T18:37:15.490Z,10.70
2023-01-11T18:39:43.860Z,10.60
2023-01-11T18:42:16.530Z,10.70
2023-01-11T18:44:46.721Z,10.70
2023-01-11T18:47:16.607Z,10.70
2023-01-11T18:49:45.073Z,10.70
2023-01-11T18:52:14.081Z,10.60
2023-01-11T18:54:42.838Z,10.50
2023-01-11T18:57:11.247Z,10.40
2023-01-11T18:59:41.112Z,10.20
2023-01-11T19:02:17.819Z,10.10
2023-01-11T19:04:46.770Z,10.10
2023-01-11T19:07:15.456Z,10.10
2023-01-11T19:09:45.057Z,10.10
2023-01-11T19:12:13.549Z,10.10
2023-01-11T19:14:43.667Z,10.10
2023-01-11T19:17:12.594Z,10.10
2023-01-11T19:19:41.191Z,10.10
2023-01-11T19:22:09.767Z,10.10
2023-01-11T19:24:38.514Z,10.10
2023-01-11T19:27:07.303Z,10.10
2023-01-11T19:29:35.680Z,9.90
2023-01-11T19:32:05.706Z,9.80
2023-01-11T19:34:34.316Z,9.60
2023-01-11T19:37:02.672Z,9.50
2023-01-11T19:39:30.982Z,9.50
2023-01-11T19:42:01.531Z,9.50
2023-01-11T19:44:31.403Z,9.60
2023-01-11T19:47:11.050Z,9.70
2023-01-11T19:49:41.904Z,9.70
2023-01-11T19:52:13.399Z,9.70
2023-01-11T19:54:43.133Z,9.70
2023-01-11T19:57:11.871Z,9.70
2023-01-11T19:59:40.259Z,9.70
2023-01-11T20:02:08.806Z,9.60
2023-01-11T20:04:37.330Z,9.50
2023-01-11T20:07:07.453Z,9.50
2023-01-11T20:09:37.602Z,9.60
2023-01-11T20:12:06.153Z,9.50
2023-01-11T20:14:35.085Z,9.40
2023-01-11T20:17:03.488Z,9.30
2023-01-11T20:19:31.835Z,9.20
2023-01-11T20:22:00.302Z,9.20
2023-01-11T20:24:30.398Z,9.20
2023-01-11T20:26:59.797Z,9.20
2023-01-11T20:29:28.293Z,9.40
2023-01-11T20:32:00.371Z,9.60
2023-01-11T20:34:34.983Z,9.60
2023-01-11T20:37:03.347Z,9.60
2023-01-11T20:39:33.133Z,9.50
2023-01-11T20:42:02.888Z,9.50
2023-01-11T20:44:32.270Z,9.40
2023-01-11T20:47:00.613Z,9.40
2023-01-11T20:49:30.299Z,9.50
2023-01-11T20:51:58.723Z,9.60
2023-01-11T20:54:27.313Z,9.60
2023-01-11T20:57:02.066Z,9.60
2023-01-11T20:59:32.264Z,9.60
2023-01-11T21:02:00.641Z,9.60
2023-01-11T21:04:29.069Z,9.60
2023-01-11T21:06:57.580Z,9.60
2023-01-11T21:09:25.957Z,9.40
2023-01-11T21:11:54.411Z,9.30
2023-01-11T21:14:24.288Z,9.30
2023-01-11T21:16:55.209Z,9.40
2023-01-11T21:19:23.989Z,9.50
2023-01-11T21:21:52.455Z,9.60
2023-01-11T21:24:20.981Z,9.60
2023-01-11T21:26:49.453Z,9.50
2023-01-11T21:29:17.908Z,9.20
2023-01-11T21:31:47.720Z,9.10
2023-01-11T21:34:16.159Z,9.10
2023-01-11T21:36:44.772Z,9.10
2023-01-11T21:39:13.577Z,9.10
2023-01-11T21:41:58.774Z,9.20
2023-01-11T21:44:28.990Z,9.40
2023-01-11T21:46:59.085Z,9.40
2023-01-11T21:49:27.521Z,9.30
2023-01-11T21:51:55.936Z,9.20
2023-01-11T21:54:24.331Z,9.10
2023-01-11T21:56:53.129Z,9.00
2023-01-11T21:59:21.640Z,8.90
2023-01-11T22:01:50.245Z,8.80
2023-01-11T22:04:20.770Z,8.80
2023-01-11T22:06:55.145Z,8.90
2023-01-11T22:09:25.864Z,8.90
2023-01-11T22:11:54.446Z,9.00
2023-01-11T22:14:22.807Z,8.90
2023-01-11T22:16:51.462Z,8.80
2023-01-11T22:19:21.362Z,8.80
2023-01-11T22:21:49.756Z,8.80
2023-01-11T22:24:18.256Z,8.70
2023-01-11T22:26:46.712Z,8.80
2023-01-11T22:29:18.506Z,8.80
2023-01-11T22:31:48.957Z,9.00
2023-01-11T22:34:18.217Z,9.00
2023-01-11T22:36:48.308Z,9.10
2023-01-11T22:39:19.467Z,9.10
2023-01-11T22:41:48.328Z,9.00
2023-01-11T22:44:16.935Z,8.90
2023-01-11T22:46:45.734Z,8.80
2023-01-11T22:49:14.571Z,8.60
2023-01-11T22:51:43.925Z,8.70
2023-01-11T22:54:14.141Z,8.70
2023-01-11T22:56:43.121Z,8.80
2023-01-11T22:59:11.542Z,8.80
2023-01-11T23:01:40.780Z,8.90
2023-01-11T23:04:10.269Z,8.90
2023-01-11T23:06:39.685Z,8.80
2023-01-11T23:09:09.431Z,8.70
2023-01-11T23:11:57.712Z,8.60
2023-01-11T23:14:28.040Z,8.60
2023-01-11T23:16:56.519Z,8.70
2023-01-11T23:19:25.079Z,8.80
2023-01-11T23:21:53.413Z,8.80
2023-01-11T23:24:22.239Z,8.80
2023-01-11T23:26:52.079Z,8.60
2023-01-11T23:29:20.469Z,8.50
2023-01-11T23:31:48.939Z,8.40
2023-01-11T23:34:17.489Z,8.40
2023-01-11T23:36:45.811Z,8.50
2023-01-11T23:39:14.915Z,8.60
2023-01-11T23:42:00.949Z,8.60
2023-01-11T23:44:30.790Z,8.70
2023-01-11T23:47:16.183Z,8.80
2023-01-11T23:49:45.570Z,8.80
2023-01-11T23:52:13.983Z,8.80
2023-01-11T23:54:43.441Z,8.70
2023-01-11T23:57:12.521Z,8.70
2023-01-11T23:59:42.927Z,8.70
